sensor_id;sensor_type;location;lat;lon;timestamp;pressure;altitude;pressure_sealevel;temperature;humidity
17362;BME280;8798;51.938;4.348;2023-10-08T00:00:46;102277.91;;;20.18;74.69
17362;BME280;8798;51.938;4.348;2023-10-08T00:03:16;102277.03;;;20.17;74.60
17362;BME280;8798;51.938;4.348;2023-10-08T00:05:45;102268.00;;;20.17;74.68
17362;BME280;8798;51.938;4.348;2023-10-08T00:08:14;102265.63;;;20.14;74.58
17362;BME280;8798;51.938;4.348;2023-10-08T00:10:45;102265.63;;;20.14;74.60
17362;BME280;8798;51.938;4.348;2023-10-08T00:13:14;102246.06;;;20.10;74.54
17362;BME280;8798;51.938;4.348;2023-10-08T00:15:43;102246.22;;;20.09;74.23
17362;BME280;8798;51.938;4.348;2023-10-08T00:18:20;102230.22;;;20.06;74.43
17362;BME280;8798;51.938;4.348;2023-10-08T00:20:49;102228.69;;;20.03;74.37
17362;BME280;8798;51.938;4.348;2023-10-08T00:23:25;102222.56;;;20.01;74.52
17362;BME280;8798;51.938;4.348;2023-10-08T00:25:55;102220.84;;;20.00;74.13
17362;BME280;8798;51.938;4.348;2023-10-08T00:28:24;102210.97;;;19.99;74.34
17362;BME280;8798;51.938;4.348;2023-10-08T00:30:55;102209.31;;;19.98;74.20
17362;BME280;8798;51.938;4.348;2023-10-08T00:33:24;102197.72;;;19.96;74.28
17362;BME280;8798;51.938;4.348;2023-10-08T00:35:52;102198.72;;;19.95;74.19
17362;BME280;8798;51.938;4.348;2023-10-08T00:38:20;102199.75;;;19.94;73.82
17362;BME280;8798;51.938;4.348;2023-10-08T00:40:48;102192.59;;;19.93;74.10
17362;BME280;8798;51.938;4.348;2023-10-08T00:43:33;102185.28;;;19.93;73.97
17362;BME280;8798;51.938;4.348;2023-10-08T00:46:02;102195.31;;;19.93;73.96
17362;BME280;8798;51.938;4.348;2023-10-08T00:48:44;102188.00;;;19.93;73.94
17362;BME280;8798;51.938;4.348;2023-10-08T00:51:15;102193.47;;;19.93;74.14
17362;BME280;8798;51.938;4.348;2023-10-08T00:53:54;102196.19;;;19.93;73.93
17362;BME280;8798;51.938;4.348;2023-10-08T00:56:27;102201.66;;;19.93;73.89
17362;BME280;8798;51.938;4.348;2023-10-08T00:59:13;102203.16;;;19.96;73.85
17362;BME280;8798;51.938;4.348;2023-10-08T01:01:42;102211.53;;;19.94;73.94
17362;BME280;8798;51.938;4.348;2023-10-08T01:04:18;102206.91;;;19.95;73.69
17362;BME280;8798;51.938;4.348;2023-10-08T01:06:51;102215.75;;;19.97;73.65
17362;BME280;8798;51.938;4.348;2023-10-08T01:09:22;102215.09;;;19.95;73.82
17362;BME280;8798;51.938;4.348;2023-10-08T01:12:08;102217.81;;;19.95;73.75
17362;BME280;8798;51.938;4.348;2023-10-08T01:14:40;102211.69;;;19.93;73.50
17362;BME280;8798;51.938;4.348;2023-10-08T01:17:10;102203.50;;;19.93;73.59
17362;BME280;8798;51.938;4.348;2023-10-08T01:19:41;102210.00;;;19.92;73.44
17362;BME280;8798;51.938;4.348;2023-10-08T01:22:13;102202.84;;;19.91;73.62
17362;BME280;8798;51.938;4.348;2023-10-08T01:24:45;102200.13;;;19.91;73.57
17362;BME280;8798;51.938;4.348;2023-10-08T01:27:16;102206.59;;;19.90;73.70
17362;BME280;8798;51.938;4.348;2023-10-08T01:29:49;102204.91;;;19.89;73.50
17362;BME280;8798;51.938;4.348;2023-10-08T01:32:19;102198.63;;;19.88;73.15
17362;BME280;8798;51.938;4.348;2023-10-08T01:34:49;102210.16;;;19.90;73.40
17362;BME280;8798;51.938;4.348;2023-10-08T01:37:18;102202.19;;;19.89;73.54
17362;BME280;8798;51.938;4.348;2023-10-08T01:39:48;102187.19;;;19.85;73.41
17362;BME280;8798;51.938;4.348;2023-10-08T01:42:17;102191.66;;;19.86;73.39
17362;BME280;8798;51.938;4.348;2023-10-08T01:44:45;102195.22;;;19.86;73.55
17362;BME280;8798;51.938;4.348;2023-10-08T01:47:15;102201.34;;;19.88;73.49
17362;BME280;8798;51.938;4.348;2023-10-08T01:49:44;102223.81;;;19.90;73.47
17362;BME280;8798;51.938;4.348;2023-10-08T01:52:13;102223.66;;;19.92;73.14
17362;BME280;8798;51.938;4.348;2023-10-08T01:54:49;102230.13;;;19.91;73.35
17362;BME280;8798;51.938;4.348;2023-10-08T01:57:20;102233.72;;;19.91;73.21
17362;BME280;8798;51.938;4.348;2023-10-08T01:59:48;102232.00;;;19.90;73.50
17362;BME280;8798;51.938;4.348;2023-10-08T02:02:16;102227.56;;;19.89;73.42
17362;BME280;8798;51.938;4.348;2023-10-08T02:04:44;102233.03;;;19.89;73.18
17362;BME280;8798;51.938;4.348;2023-10-08T02:07:13;102226.72;;;19.89;73.36
17362;BME280;8798;51.938;4.348;2023-10-08T02:09:41;102232.19;;;19.89;73.60
17362;BME280;8798;51.938;4.348;2023-10-08T02:12:12;102232.19;;;19.89;73.41
17362;BME280;8798;51.938;4.348;2023-10-08T02:14:41;102240.38;;;19.89;73.53
17362;BME280;8798;51.938;4.348;2023-10-08T02:17:09;102240.38;;;19.89;73.07
17362;BME280;8798;51.938;4.348;2023-10-08T02:19:37;102248.34;;;19.90;73.47
17362;BME280;8798;51.938;4.348;2023-10-08T02:22:07;102251.09;;;19.90;73.60
17362;BME280;8798;51.938;4.348;2023-10-08T02:24:36;102259.09;;;19.92;73.42
17362;BME280;8798;51.938;4.348;2023-10-08T02:27:04;102266.91;;;19.95;73.57
17362;BME280;8798;51.938;4.348;2023-10-08T02:29:34;102282.97;;;19.98;73.42
17362;BME280;8798;51.938;4.348;2023-10-08T02:32:03;102290.09;;;19.99;73.74
17362;BME280;8798;51.938;4.348;2023-10-08T02:34:31;102293.66;;;20.00;73.54
17362;BME280;8798;51.938;4.348;2023-10-08T02:36:59;102307.16;;;20.01;73.62
17362;BME280;8798;51.938;4.348;2023-10-08T02:39:27;102314.28;;;20.02;73.90
17362;BME280;8798;51.938;4.348;2023-10-08T02:41:57;102321.47;;;20.03;73.44
17362;BME280;8798;51.938;4.348;2023-10-08T02:44:26;102323.16;;;20.04;73.59
17362;BME280;8798;51.938;4.348;2023-10-08T02:46:56;102326.56;;;20.06;73.76
17362;BME280;8798;51.938;4.348;2023-10-08T02:49:24;102334.56;;;20.08;74.06
17362;BME280;8798;51.938;4.348;2023-10-08T02:51:57;102330.97;;;20.07;73.78
17362;BME280;8798;51.938;4.348;2023-10-08T02:54:25;102334.75;;;20.06;73.95
17362;BME280;8798;51.938;4.348;2023-10-08T02:57:03;102326.72;;;20.05;73.81
17362;BME280;8798;51.938;4.348;2023-10-08T02:59:32;102334.06;;;20.04;74.29
17362;BME280;8798;51.938;4.348;2023-10-08T03:02:08;102325.88;;;20.04;73.68
17362;BME280;8798;51.938;4.348;2023-10-08T03:04:42;102326.91;;;20.03;73.64
17362;BME280;8798;51.938;4.348;2023-10-08T03:07:12;102324.19;;;20.03;73.80
17362;BME280;8798;51.938;4.348;2023-10-08T03:09:49;102317.88;;;20.03;73.55
17362;BME280;8798;51.938;4.348;2023-10-08T03:12:18;102319.75;;;20.02;73.88
17362;BME280;8798;51.938;4.348;2023-10-08T03:14:48;102320.59;;;20.03;73.64
17362;BME280;8798;51.938;4.348;2023-10-08T03:17:29;102318.91;;;20.02;73.97
17362;BME280;8798;51.938;4.348;2023-10-08T03:20:05;102315.50;;;20.00;73.71
17362;BME280;8798;51.938;4.348;2023-10-08T03:22:55;102321.63;;;20.02;73.87
17362;BME280;8798;51.938;4.348;2023-10-08T03:25:25;102316.34;;;20.00;73.51
17362;BME280;8798;51.938;4.348;2023-10-08T03:27:54;102303.06;;;19.97;73.92
17362;BME280;8798;51.938;4.348;2023-10-08T03:30:25;102297.81;;;19.95;73.74
17362;BME280;8798;51.938;4.348;2023-10-08T03:32:55;102293.53;;;19.93;73.93
17362;BME280;8798;51.938;4.348;2023-10-08T03:35:23;102276.50;;;19.91;74.06
17362;BME280;8798;51.938;4.348;2023-10-08T03:37:57;102276.69;;;19.89;73.83
17362;BME280;8798;51.938;4.348;2023-10-08T03:40:46;102256.22;;;19.85;74.10
17362;BME280;8798;51.938;4.348;2023-10-08T03:43:18;102256.44;;;19.84;74.14
17362;BME280;8798;51.938;4.348;2023-10-08T03:45:52;102242.28;;;19.80;74.18
17362;BME280;8798;51.938;4.348;2023-10-08T03:48:22;102234.28;;;19.79;74.02
17362;BME280;8798;51.938;4.348;2023-10-08T03:50:51;102228.16;;;19.76;74.02
17362;BME280;8798;51.938;4.348;2023-10-08T03:53:23;102222.03;;;19.74;73.96
17362;BME280;8798;51.938;4.348;2023-10-08T03:55:51;102215.91;;;19.72;74.37
17362;BME280;8798;51.938;4.348;2023-10-08T03:58:22;102212.50;;;19.70;74.26
17362;BME280;8798;51.938;4.348;2023-10-08T04:00:56;102205.34;;;19.69;74.09
17362;BME280;8798;51.938;4.348;2023-10-08T04:03:37;102209.13;;;19.68;74.20
17362;BME280;8798;51.938;4.348;2023-10-08T04:06:26;102196.84;;;19.64;74.10
17362;BME280;8798;51.938;4.348;2023-10-08T04:08:59;102183.56;;;19.61;74.43
17362;BME280;8798;51.938;4.348;2023-10-08T04:11:39;102176.59;;;19.59;74.28
17362;BME280;8798;51.938;4.348;2023-10-08T04:14:25;102173.19;;;19.57;74.48
17362;BME280;8798;51.938;4.348;2023-10-08T04:16:54;102165.38;;;19.53;74.16
17362;BME280;8798;51.938;4.348;2023-10-08T04:19:23;102158.56;;;19.49;74.39
17362;BME280;8798;51.938;4.348;2023-10-08T04:21:54;102149.88;;;19.46;74.06
17362;BME280;8798;51.938;4.348;2023-10-08T04:24:23;102136.63;;;19.43;74.29
17362;BME280;8798;51.938;4.348;2023-10-08T04:27:01;102126.09;;;19.40;74.25
17362;BME280;8798;51.938;4.348;2023-10-08T04:29:36;102121.84;;;19.37;74.54
17362;BME280;8798;51.938;4.348;2023-10-08T04:32:05;102130.03;;;19.37;74.46
17362;BME280;8798;51.938;4.348;2023-10-08T04:34:40;102133.75;;;19.36;74.58
17362;BME280;8798;51.938;4.348;2023-10-08T04:37:14;102131.22;;;19.34;74.73
17362;BME280;8798;51.938;4.348;2023-10-08T04:39:46;102124.06;;;19.33;74.51
17362;BME280;8798;51.938;4.348;2023-10-08T04:42:21;102127.81;;;19.32;74.61
17362;BME280;8798;51.938;4.348;2023-10-08T04:44:53;102135.16;;;19.32;74.78
17362;BME280;8798;51.938;4.348;2023-10-08T04:47:22;102144.34;;;19.31;74.74
17362;BME280;8798;51.938;4.348;2023-10-08T04:50:01;102143.34;;;19.32;75.00
17362;BME280;8798;51.938;4.348;2023-10-08T04:52:33;102144.34;;;19.31;74.88
17362;BME280;8798;51.938;4.348;2023-10-08T04:55:12;102140.78;;;19.30;74.95
17362;BME280;8798;51.938;4.348;2023-10-08T04:57:47;102152.72;;;19.29;75.10
17362;BME280;8798;51.938;4.348;2023-10-08T05:00:17;102153.72;;;19.28;74.97
17362;BME280;8798;51.938;4.348;2023-10-08T05:03:05;102138.78;;;19.24;74.91
17362;BME280;8798;51.938;4.348;2023-10-08T05:05:42;102112.41;;;19.17;75.05
17362;BME280;8798;51.938;4.348;2023-10-08T05:08:34;102106.44;;;19.13;75.00
17362;BME280;8798;51.938;4.348;2023-10-08T05:11:14;102095.75;;;19.11;75.06
17362;BME280;8798;51.938;4.348;2023-10-08T05:14:14;102083.66;;;19.06;74.82
17362;BME280;8798;51.938;4.348;2023-10-08T05:16:55;102083.88;;;19.04;75.13
17362;BME280;8798;51.938;4.348;2023-10-08T05:19:27;102086.75;;;19.03;75.20
17362;BME280;8798;51.938;4.348;2023-10-08T05:22:15;102082.50;;;19.00;75.32
17362;BME280;8798;51.938;4.348;2023-10-08T05:25:01;102075.72;;;18.96;75.43
17362;BME280;8798;51.938;4.348;2023-10-08T05:27:39;102065.84;;;18.95;75.49
17362;BME280;8798;51.938;4.348;2023-10-08T05:30:23;102063.50;;;18.92;75.42
17362;BME280;8798;51.938;4.348;2023-10-08T05:33:05;102063.66;;;18.90;75.64
17362;BME280;8798;51.938;4.348;2023-10-08T05:35:36;102066.53;;;18.89;75.48
17362;BME280;8798;51.938;4.348;2023-10-08T05:38:19;102051.41;;;18.86;75.46
17362;BME280;8798;51.938;4.348;2023-10-08T05:40:51;102046.53;;;18.82;75.70
17362;BME280;8798;51.938;4.348;2023-10-08T05:43:32;102033.22;;;18.79;75.64
17362;BME280;8798;51.938;4.348;2023-10-08T05:46:29;102017.59;;;18.73;75.64
17362;BME280;8798;51.938;4.348;2023-10-08T05:49:14;102013.34;;;18.70;75.70
17362;BME280;8798;51.938;4.348;2023-10-08T05:52:05;101999.59;;;18.63;75.66
17362;BME280;8798;51.938;4.348;2023-10-08T05:54:53;101987.19;;;18.61;75.65
17362;BME280;8798;51.938;4.348;2023-10-08T05:57:38;101983.97;;;18.57;75.84
17362;BME280;8798;51.938;4.348;2023-10-08T06:00:07;101978.00;;;18.54;75.82
17362;BME280;8798;51.938;4.348;2023-10-08T06:02:56;101970.38;;;18.49;75.76
17362;BME280;8798;51.938;4.348;2023-10-08T06:05:59;101967.16;;;18.45;75.91
17362;BME280;8798;51.938;4.348;2023-10-08T06:08:49;101952.06;;;18.43;75.96
17362;BME280;8798;51.938;4.348;2023-10-08T06:11:20;101963.94;;;18.42;76.04
17362;BME280;8798;51.938;4.348;2023-10-08T06:14:08;101961.41;;;18.40;76.06
17362;BME280;8798;51.938;4.348;2023-10-08T06:16:55;101967.03;;;18.39;76.06
17362;BME280;8798;51.938;4.348;2023-10-08T06:19:40;101971.63;;;18.38;75.97
17362;BME280;8798;51.938;4.348;2023-10-08T06:22:09;101969.94;;;18.37;76.19
17362;BME280;8798;51.938;4.348;2023-10-08T06:24:37;101981.81;;;18.36;76.04
17362;BME280;8798;51.938;4.348;2023-10-08T06:27:07;101989.16;;;18.36;76.30
17362;BME280;8798;51.938;4.348;2023-10-08T06:29:36;102001.72;;;18.37;76.19
17362;BME280;8798;51.938;4.348;2023-10-08T06:32:11;102008.88;;;18.38;76.21
17362;BME280;8798;51.938;4.348;2023-10-08T06:34:39;101974.53;;;18.29;76.21
17362;BME280;8798;51.938;4.348;2023-10-08T06:37:07;101966.06;;;18.23;76.27
17362;BME280;8798;51.938;4.348;2023-10-08T06:39:35;101962.81;;;18.20;76.49
17362;BME280;8798;51.938;4.348;2023-10-08T06:42:15;101937.53;;;18.11;76.17
17362;BME280;8798;51.938;4.348;2023-10-08T06:44:44;101945.53;;;18.13;76.53
17362;BME280;8798;51.938;4.348;2023-10-08T06:47:15;101958.94;;;18.14;76.58
17362;BME280;8798;51.938;4.348;2023-10-08T06:49:43;101964.38;;;18.14;76.77
17362;BME280;8798;51.938;4.348;2023-10-08T06:52:12;101973.72;;;18.12;76.93
17362;BME280;8798;51.938;4.348;2023-10-08T06:54:40;101975.44;;;18.13;76.53
17362;BME280;8798;51.938;4.348;2023-10-08T06:57:08;101992.59;;;18.13;76.94
17362;BME280;8798;51.938;4.348;2023-10-08T06:59:42;102002.66;;;18.13;76.80
17362;BME280;8798;51.938;4.348;2023-10-08T07:02:10;102015.38;;;18.12;76.66
17362;BME280;8798;51.938;4.348;2023-10-08T07:04:39;102025.06;;;18.15;76.86
17362;BME280;8798;51.938;4.348;2023-10-08T07:07:08;102055.50;;;18.18;76.80
17362;BME280;8798;51.938;4.348;2023-10-08T07:09:36;102064.50;;;18.19;77.26
17362;BME280;8798;51.938;4.348;2023-10-08T07:12:04;102061.78;;;18.19;77.24
17362;BME280;8798;51.938;4.348;2023-10-08T07:14:41;102069.25;;;18.17;76.97
17362;BME280;8798;51.938;4.348;2023-10-08T07:17:10;102059.75;;;18.13;77.36
17362;BME280;8798;51.938;4.348;2023-10-08T07:19:47;102039.50;;;18.07;77.05
17362;BME280;8798;51.938;4.348;2023-10-08T07:22:17;102033.59;;;18.03;77.18
17362;BME280;8798;51.938;4.348;2023-10-08T07:24:50;102053.31;;;18.05;77.27
17362;BME280;8798;51.938;4.348;2023-10-08T07:27:19;102075.56;;;18.09;77.43
17362;BME280;8798;51.938;4.348;2023-10-08T07:29:52;102085.44;;;18.10;77.48
17362;BME280;8798;51.938;4.348;2023-10-08T07:32:24;102095.28;;;18.11;77.46
17362;BME280;8798;51.938;4.348;2023-10-08T07:34:53;102111.59;;;18.11;77.17
17362;BME280;8798;51.938;4.348;2023-10-08T07:37:24;102082.19;;;18.07;77.10
17362;BME280;8798;51.938;4.348;2023-10-08T07:39:53;102080.16;;;18.00;77.33
17362;BME280;8798;51.938;4.348;2023-10-08T07:42:22;102065.88;;;17.98;77.12
17362;BME280;8798;51.938;4.348;2023-10-08T07:44:50;102069.78;;;17.96;77.43
17362;BME280;8798;51.938;4.348;2023-10-08T07:47:23;102059.06;;;17.94;77.24
17362;BME280;8798;51.938;4.348;2023-10-08T07:49:51;102082.53;;;17.95;77.39
17362;BME280;8798;51.938;4.348;2023-10-08T07:52:20;102096.78;;;17.97;77.60
17362;BME280;8798;51.938;4.348;2023-10-08T07:54:49;102105.81;;;17.98;77.53
17362;BME280;8798;51.938;4.348;2023-10-08T07:57:19;102113.97;;;17.98;77.36
17362;BME280;8798;51.938;4.348;2023-10-08T07:59:53;102114.28;;;17.95;77.74
17362;BME280;8798;51.938;4.348;2023-10-08T08:02:23;102104.63;;;17.92;77.88
17362;BME280;8798;51.938;4.348;2023-10-08T08:04:53;102134.22;;;17.95;77.40
17362;BME280;8798;51.938;4.348;2023-10-08T08:07:21;102167.00;;;18.02;77.70
17362;BME280;8798;51.938;4.348;2023-10-08T08:09:53;102184.84;;;18.04;77.77
17362;BME280;8798;51.938;4.348;2023-10-08T08:12:27;102188.41;;;18.05;77.73
17362;BME280;8798;51.938;4.348;2023-10-08T08:15:01;102183.31;;;18.02;77.62
17362;BME280;8798;51.938;4.348;2023-10-08T08:17:42;102189.78;;;18.01;77.68
17362;BME280;8798;51.938;4.348;2023-10-08T08:20:11;102197.75;;;18.02;77.63
17362;BME280;8798;51.938;4.348;2023-10-08T08:22:45;102214.75;;;18.04;77.47
17362;BME280;8798;51.938;4.348;2023-10-08T08:25:17;102252.88;;;18.13;77.58
17362;BME280;8798;51.938;4.348;2023-10-08T08:27:53;102307.97;;;18.23;77.64
17362;BME280;8798;51.938;4.348;2023-10-08T08:30:22;102337.06;;;18.31;77.51
17362;BME280;8798;51.938;4.348;2023-10-08T08:32:55;102347.78;;;18.32;77.62
17362;BME280;8798;51.938;4.348;2023-10-08T08:35:25;102383.53;;;18.37;77.63
17362;BME280;8798;51.938;4.348;2023-10-08T08:37:53;102379.09;;;18.36;77.46
17362;BME280;8798;51.938;4.348;2023-10-08T08:40:21;102386.41;;;18.36;77.44
17362;BME280;8798;51.938;4.348;2023-10-08T08:42:51;102414.66;;;18.43;77.64
17362;BME280;8798;51.938;4.348;2023-10-08T08:45:22;102450.06;;;18.51;77.52
17362;BME280;8798;51.938;4.348;2023-10-08T08:47:51;102487.53;;;18.57;77.62
17362;BME280;8798;51.938;4.348;2023-10-08T08:50:21;102508.78;;;18.62;77.35
17362;BME280;8798;51.938;4.348;2023-10-08T08:52:49;102500.63;;;18.62;77.44
17362;BME280;8798;51.938;4.348;2023-10-08T08:55:19;102516.66;;;18.65;77.43
17362;BME280;8798;51.938;4.348;2023-10-08T08:57:50;102558.53;;;18.72;77.21
17362;BME280;8798;51.938;4.348;2023-10-08T09:00:20;102585.13;;;18.78;77.39
17362;BME280;8798;51.938;4.348;2023-10-08T09:02:48;102630.28;;;18.89;77.20
17362;BME280;8798;51.938;4.348;2023-10-08T09:05:17;102661.16;;;18.98;77.40
17362;BME280;8798;51.938;4.348;2023-10-08T09:07:55;102690.31;;;19.05;77.17
17362;BME280;8798;51.938;4.348;2023-10-08T09:10:26;102707.19;;;19.09;77.28
17362;BME280;8798;51.938;4.348;2023-10-08T09:12:56;102738.19;;;19.16;77.08
17362;BME280;8798;51.938;4.348;2023-10-08T09:15:26;102769.94;;;19.25;77.07
17362;BME280;8798;51.938;4.348;2023-10-08T09:17:56;102756.50;;;19.24;77.08
17362;BME280;8798;51.938;4.348;2023-10-08T09:20:28;102766.38;;;19.25;76.88
17362;BME280;8798;51.938;4.348;2023-10-08T09:23:17;102768.75;;;19.28;76.92
17362;BME280;8798;51.938;4.348;2023-10-08T09:25:49;102790.09;;;19.32;76.54
17362;BME280;8798;51.938;4.348;2023-10-08T09:28:18;102800.66;;;19.36;76.64
17362;BME280;8798;51.938;4.348;2023-10-08T09:30:48;102830.72;;;19.44;76.78
17362;BME280;8798;51.938;4.348;2023-10-08T09:33:16;102856.28;;;19.51;76.61
17362;BME280;8798;51.938;4.348;2023-10-08T09:35:46;102872.16;;;19.55;76.45
17362;BME280;8798;51.938;4.348;2023-10-08T09:38:15;102862.13;;;19.56;76.58
17362;BME280;8798;51.938;4.348;2023-10-08T09:40:52;102884.31;;;19.61;76.46
17362;BME280;8798;51.938;4.348;2023-10-08T09:43:20;102881.41;;;19.63;76.34
17362;BME280;8798;51.938;4.348;2023-10-08T09:45:54;102929.44;;;19.73;76.47
17362;BME280;8798;51.938;4.348;2023-10-08T09:48:26;102945.47;;;19.76;76.27
17362;BME280;8798;51.938;4.348;2023-10-08T09:50:58;102898.88;;;19.70;75.91
17362;BME280;8798;51.938;4.348;2023-10-08T09:53:32;102883.69;;;19.67;75.98
17362;BME280;8798;51.938;4.348;2023-10-08T09:56:14;102886.09;;;19.70;76.02
17362;BME280;8798;51.938;4.348;2023-10-08T09:58:44;102885.09;;;19.71;75.93
17362;BME280;8798;51.938;4.348;2023-10-08T10:01:17;102874.34;;;19.70;75.82
17362;BME280;8798;51.938;4.348;2023-10-08T10:03:46;102853.84;;;19.66;75.68
17362;BME280;8798;51.938;4.348;2023-10-08T10:06:18;102875.03;;;19.72;75.83
17362;BME280;8798;51.938;4.348;2023-10-08T10:08:48;102904.22;;;19.80;75.55
17362;BME280;8798;51.938;4.348;2023-10-08T10:11:17;102927.09;;;19.87;75.42
17362;BME280;8798;51.938;4.348;2023-10-08T10:13:50;102935.81;;;19.90;75.52
17362;BME280;8798;51.938;4.348;2023-10-08T10:16:28;102922.16;;;19.90;75.41
17362;BME280;8798;51.938;4.348;2023-10-08T10:18:56;102920.47;;;19.89;75.35
17362;BME280;8798;51.938;4.348;2023-10-08T10:21:29;102909.56;;;19.89;75.06
17362;BME280;8798;51.938;4.348;2023-10-08T10:23:57;102913.13;;;19.90;74.98
17362;BME280;8798;51.938;4.348;2023-10-08T10:26:28;102919.16;;;19.93;74.98
17362;BME280;8798;51.938;4.348;2023-10-08T10:29:19;102927.00;;;19.96;74.85
17362;BME280;8798;51.938;4.348;2023-10-08T10:31:49;102919.66;;;19.97;74.71
17362;BME280;8798;51.938;4.348;2023-10-08T10:34:22;102939.13;;;20.02;74.82
17362;BME280;8798;51.938;4.348;2023-10-08T10:36:54;102930.25;;;20.00;74.81
17362;BME280;8798;51.938;4.348;2023-10-08T10:39:29;102943.94;;;20.08;74.71
17362;BME280;8798;51.938;4.348;2023-10-08T10:42:02;102938.63;;;20.07;74.61
17362;BME280;8798;51.938;4.348;2023-10-08T10:44:33;102924.31;;;20.05;74.67
17362;BME280;8798;51.938;4.348;2023-10-08T10:47:03;102907.41;;;20.01;74.57
17362;BME280;8798;51.938;4.348;2023-10-08T10:49:51;102938.31;;;20.10;74.42
17362;BME280;8798;51.938;4.348;2023-10-08T10:52:22;102995.88;;;20.25;74.30
17362;BME280;8798;51.938;4.348;2023-10-08T10:55:01;103044.56;;;20.37;74.25
17362;BME280;8798;51.938;4.348;2023-10-08T10:57:49;103080.66;;;20.49;74.32
17362;BME280;8798;51.938;4.348;2023-10-08T11:00:28;103123.41;;;20.58;73.94
17362;BME280;8798;51.938;4.348;2023-10-08T11:03:15;103090.97;;;20.55;73.85
17362;BME280;8798;51.938;4.348;2023-10-08T11:05:47;103074.69;;;20.54;74.03
17362;BME280;8798;51.938;4.348;2023-10-08T11:08:19;103032.84;;;20.45;73.64
17362;BME280;8798;51.938;4.348;2023-10-08T11:10:51;103061.03;;;20.54;73.86
17362;BME280;8798;51.938;4.348;2023-10-08T11:13:23;103135.63;;;20.72;73.69
17362;BME280;8798;51.938;4.348;2023-10-08T11:15:55;103187.78;;;20.87;73.55
17362;BME280;8798;51.938;4.348;2023-10-08T11:18:26;103190.19;;;20.90;73.46
17362;BME280;8798;51.938;4.348;2023-10-08T11:21:05;103155.16;;;20.86;73.62
17362;BME280;8798;51.938;4.348;2023-10-08T11:23:44;103156.84;;;20.87;73.23
17362;BME280;8798;51.938;4.348;2023-10-08T11:26:20;103132.25;;;20.87;73.25
17362;BME280;8798;51.938;4.348;2023-10-08T11:29:00;103115.19;;;20.85;73.17
17362;BME280;8798;51.938;4.348;2023-10-08T11:31:30;103123.91;;;20.88;72.85
17362;BME280;8798;51.938;4.348;2023-10-08T11:34:02;103163.91;;;20.97;72.88
17362;BME280;8798;51.938;4.348;2023-10-08T11:36:35;103220.72;;;21.12;72.37
17362;BME280;8798;51.938;4.348;2023-10-08T11:39:16;103274.63;;;21.27;72.77
17362;BME280;8798;51.938;4.348;2023-10-08T11:41:59;103293.63;;;21.37;72.28
17362;BME280;8798;51.938;4.348;2023-10-08T11:44:32;103304.28;;;21.40;72.34
17362;BME280;8798;51.938;4.348;2023-10-08T11:47:04;103312.00;;;21.45;72.33
17362;BME280;8798;51.938;4.348;2023-10-08T11:49:39;103290.97;;;21.45;72.31
17362;BME280;8798;51.938;4.348;2023-10-08T11:52:14;103287.22;;;21.46;72.24
17362;BME280;8798;51.938;4.348;2023-10-08T11:54:44;103306.56;;;21.53;71.72
17362;BME280;8798;51.938;4.348;2023-10-08T11:57:15;103304.19;;;21.58;71.51
17362;BME280;8798;51.938;4.348;2023-10-08T11:59:51;103285.38;;;21.55;71.83
17362;BME280;8798;51.938;4.348;2023-10-08T12:02:23;103267.06;;;21.56;71.74
17362;BME280;8798;51.938;4.348;2023-10-08T12:04:51;103263.50;;;21.55;71.42
17362;BME280;8798;51.938;4.348;2023-10-08T12:07:19;103221.06;;;21.51;71.76
17362;BME280;8798;51.938;4.348;2023-10-08T12:09:49;103172.00;;;21.41;71.06
17362;BME280;8798;51.938;4.348;2023-10-08T12:12:17;103132.63;;;21.34;70.95
17362;BME280;8798;51.938;4.348;2023-10-08T12:14:52;103156.44;;;21.42;71.40
17362;BME280;8798;51.938;4.348;2023-10-08T12:17:21;103157.78;;;21.46;71.40
17362;BME280;8798;51.938;4.348;2023-10-08T12:20:05;103149.44;;;21.47;70.74
17362;BME280;8798;51.938;4.348;2023-10-08T12:22:49;103146.69;;;21.47;70.82
17362;BME280;8798;51.938;4.348;2023-10-08T12:25:18;103108.06;;;21.42;71.08
17362;BME280;8798;51.938;4.348;2023-10-08T12:27:46;103074.16;;;21.35;70.91
17362;BME280;8798;51.938;4.348;2023-10-08T12:30:17;103102.44;;;21.44;70.97
17362;BME280;8798;51.938;4.348;2023-10-08T12:32:51;103125.16;;;21.53;70.45
17362;BME280;8798;51.938;4.348;2023-10-08T12:35:19;103133.03;;;21.56;70.88
17362;BME280;8798;51.938;4.348;2023-10-08T12:37:48;103189.81;;;21.70;70.37
17362;BME280;8798;51.938;4.348;2023-10-08T12:40:16;103234.84;;;21.84;70.59
17362;BME280;8798;51.938;4.348;2023-10-08T12:43:00;103250.59;;;21.90;70.44
17362;BME280;8798;51.938;4.348;2023-10-08T12:45:32;103233.31;;;21.89;70.53
17362;BME280;8798;51.938;4.348;2023-10-08T12:48:00;103250.94;;;21.95;70.10
17362;BME280;8798;51.938;4.348;2023-10-08T12:50:29;103242.56;;;21.97;69.97
17362;BME280;8798;51.938;4.348;2023-10-08T12:53:05;103194.84;;;21.91;70.41
17362;BME280;8798;51.938;4.348;2023-10-08T12:55:33;103186.94;;;21.88;70.47
17362;BME280;8798;51.938;4.348;2023-10-08T12:58:06;103221.03;;;22.02;70.33
17362;BME280;8798;51.938;4.348;2023-10-08T13:00:38;103204.94;;;21.99;70.19
17362;BME280;8798;51.938;4.348;2023-10-08T13:03:08;103179.63;;;21.97;70.08
17362;BME280;8798;51.938;4.348;2023-10-08T13:05:42;103182.00;;;22.00;69.52
17362;BME280;8798;51.938;4.348;2023-10-08T13:08:11;103200.31;;;22.07;69.50
17362;BME280;8798;51.938;4.348;2023-10-08T13:10:40;103181.34;;;22.06;69.56
17362;BME280;8798;51.938;4.348;2023-10-08T13:13:11;103192.78;;;22.09;69.86
17362;BME280;8798;51.938;4.348;2023-10-08T13:15:40;103184.56;;;22.09;69.51
17362;BME280;8798;51.938;4.348;2023-10-08T13:18:09;103131.53;;;22.02;69.33
17362;BME280;8798;51.938;4.348;2023-10-08T13:20:38;103109.13;;;21.99;69.29
17362;BME280;8798;51.938;4.348;2023-10-08T13:23:08;103099.03;;;21.99;69.40
17362;BME280;8798;51.938;4.348;2023-10-08T13:25:37;103096.97;;;22.01;69.50
17362;BME280;8798;51.938;4.348;2023-10-08T13:28:06;103082.44;;;22.01;69.39
17362;BME280;8798;51.938;4.348;2023-10-08T13:30:39;103057.13;;;21.99;69.14